TimeCST,TemperatureF,Dew PointF,Humidity,Sea Level PressureIn,VisibilityMPH,Wind Direction,Wind SpeedMPH,Gust SpeedMPH,PrecipitationIn,Events,Conditions,WindDirDegrees,DateUTC
12:56 AM,28.0,21.0,75,30.29,10.0,Calm,Calm,-,N/A,,Clear,0,2012-11-14 06:56:00
1:56 AM,27.0,21.0,78,30.28,10.0,Calm,Calm,-,N/A,,Clear,0,2012-11-14 07:56:00
2:56 AM,26.1,21.0,81,30.30,10.0,Calm,Calm,-,N/A,,Clear,0,2012-11-14 08:56:00
3:56 AM,24.1,19.9,84,30.30,10.0,Calm,Calm,-,N/A,,Clear,0,2012-11-14 09:56:00
4:56 AM,24.1,19.9,84,30.29,10.0,Calm,Calm,-,N/A,,Clear,0,2012-11-14 10:56:00
5:56 AM,23.0,19.0,85,30.30,10.0,Calm,Calm,-,N/A,,Clear,0,2012-11-14 11:56:00
6:56 AM,24.1,19.0,81,30.30,10.0,Calm,Calm,-,N/A,,Clear,0,2012-11-14 12:56:00
7:56 AM,25.0,19.9,81,30.31,10.0,Calm,Calm,-,N/A,,Clear,0,2012-11-14 13:56:00
8:56 AM,32.0,23.0,69,30.30,10.0,Calm,Calm,-,N/A,,Clear,0,2012-11-14 14:56:00
9:56 AM,37.0,27.0,67,30.31,10.0,South,3.5,-,N/A,,Clear,190,2012-11-14 15:56:00
10:56 AM,43.0,27.0,53,30.29,10.0,SW,5.8,-,N/A,,Clear,220,2012-11-14 16:56:00
11:56 AM,48.0,27.0,44,30.27,10.0,SW,4.6,-,N/A,,Clear,220,2012-11-14 17:56:00
12:56 PM,52.0,28.0,40,30.23,10.0,SSW,5.8,-,N/A,,Clear,200,2012-11-14 18:56:00
1:56 PM,54.0,28.0,37,30.20,10.0,South,6.9,-,N/A,,Clear,190,2012-11-14 19:56:00
2:56 PM,54.0,27.0,35,30.19,10.0,SSW,9.2,-,N/A,,Clear,210,2012-11-14 20:56:00
3:56 PM,54.0,27.0,35,30.18,10.0,South,11.5,-,N/A,,Clear,190,2012-11-14 21:56:00
4:56 PM,48.0,27.0,44,30.17,10.0,South,6.9,-,N/A,,Clear,170,2012-11-14 22:56:00
5:56 PM,44.1,27.0,51,30.17,10.0,SSE,5.8,-,N/A,,Clear,150,2012-11-14 23:56:00
6:56 PM,39.9,27.0,60,30.18,10.0,SSE,3.5,-,N/A,,Clear,160,2012-11-15 00:56:00
7:56 PM,44.1,28.0,53,30.17,10.0,South,9.2,-,N/A,,Clear,180,2012-11-15 01:56:00
8:56 PM,46.0,26.1,46,30.17,10.0,South,12.7,-,N/A,,Clear,190,2012-11-15 02:56:00
9:56 PM,44.1,27.0,51,30.17,10.0,SSW,13.8,-,N/A,,Partly Cloudy,200,2012-11-15 03:56:00
10:56 PM,44.1,28.0,53,30.16,10.0,SSW,12.7,-,N/A,,Overcast,200,2012-11-15 04:56:00
11:56 PM,45.0,28.9,53,30.17,10.0,West,4.6,-,N/A,,Partly Cloudy,270,2012-11-15 05:56:00